createdAt,value
2023-03-05T00:00:55.581Z,102029.97
2023-03-05T00:06:17.243Z,102028.94
2023-03-05T00:11:38.980Z,102026.28
2023-03-05T00:17:00.305Z,102026.25
2023-03-05T00:22:21.776Z,102014.03
2023-03-05T00:27:43.198Z,102007.31
2023-03-05T00:33:04.954Z,102007.34
2023-03-05T00:38:25.947Z,101999.47
2023-03-05T00:43:48.371Z,101981.56
2023-03-05T00:49:09.611Z,101986.91
2023-03-05T00:54:30.859Z,101980.09
2023-03-05T00:59:52.417Z,101976.00
2023-03-05T01:05:15.309Z,101976.00
2023-03-05T01:10:36.951Z,101960.50
2023-03-05T01:15:58.102Z,101955.41
2023-03-05T01:21:22.019Z,101948.56
2023-03-05T01:26:43.154Z,101951.34
2023-03-05T01:32:05.454Z,101940.28
2023-03-05T01:37:27.049Z,101936.84
2023-03-05T01:42:55.398Z,101935.94
2023-03-05T01:48:16.915Z,101922.84
2023-03-05T01:53:38.468Z,101914.09
2023-03-05T01:59:01.934Z,101913.13
2023-03-05T02:04:32.571Z,101909.56
2023-03-05T02:09:53.785Z,101916.22
2023-03-05T02:15:16.164Z,101899.81
2023-03-05T02:21:07.602Z,101898.25
2023-03-05T02:26:28.645Z,101879.41
2023-03-05T02:31:50.163Z,101870.72
2023-03-05T02:37:11.690Z,101871.69
2023-03-05T02:42:33.739Z,101864.72
2023-03-05T02:47:55.775Z,101865.50
2023-03-05T02:53:17.404Z,101861.16
2023-03-05T02:58:39.100Z,101842.19
2023-03-05T03:04:00.647Z,101828.34
2023-03-05T03:09:21.962Z,101828.38
2023-03-05T03:14:43.744Z,101813.03
2023-03-05T03:20:08.670Z,101813.13
2023-03-05T03:25:30.917Z,101806.44
2023-03-05T03:30:52.132Z,101806.75
2023-03-05T03:36:14.293Z,101797.63
2023-03-05T03:41:43.222Z,101785.84
2023-03-05T03:47:04.715Z,101781.56
2023-03-05T03:52:26.838Z,101775.25
2023-03-05T03:57:48.308Z,101776.75
2023-03-05T04:03:10.007Z,101774.72
2023-03-05T04:08:31.290Z,101777.16
2023-03-05T04:13:52.591Z,101764.28
2023-03-05T04:19:14.937Z,101760.75
2023-03-05T04:24:36.204Z,101753.06
2023-03-05T04:29:57.573Z,101745.56
2023-03-05T04:35:19.167Z,101739.50
2023-03-05T04:40:40.971Z,101741.41
2023-03-05T04:46:02.356Z,101744.84
2023-03-05T04:51:23.983Z,101739.53
2023-03-05T04:56:45.026Z,101735.06
2023-03-05T05:02:06.500Z,101726.41
2023-03-05T05:07:27.926Z,101725.59
2023-03-05T05:12:49.027Z,101722.97
2023-03-05T05:18:10.511Z,101725.41
2023-03-05T05:23:31.904Z,101722.00
2023-03-05T05:28:53.316Z,101714.47
2023-03-05T05:34:15.722Z,101711.16
2023-03-05T05:39:37.060Z,101711.16
2023-03-05T05:44:58.417Z,101705.22
2023-03-05T05:50:22.616Z,101707.81
2023-03-05T05:55:43.714Z,101711.34
2023-03-05T06:01:14.968Z,101706.34
2023-03-05T06:06:36.398Z,101712.44
2023-03-05T06:11:57.840Z,101711.72
2023-03-05T06:17:29.848Z,101709.09
2023-03-05T06:22:51.396Z,101701.25
2023-03-05T06:28:12.781Z,101696.06
2023-03-05T06:33:35.299Z,101698.66
2023-03-05T06:38:57.914Z,101687.41
2023-03-05T06:44:19.204Z,101690.88
2023-03-05T06:49:40.951Z,101688.41
2023-03-05T06:55:02.092Z,101686.53
2023-03-05T07:00:23.753Z,101679.63
2023-03-05T07:05:45.327Z,101680.38
2023-03-05T07:11:15.576Z,101677.75
2023-03-05T07:16:36.943Z,101677.63
2023-03-05T07:21:58.085Z,101671.53
2023-03-05T07:27:19.427Z,101672.22
2023-03-05T07:32:41.493Z,101671.06
2023-03-05T07:38:02.877Z,101678.72
2023-03-05T07:43:24.389Z,101657.91
2023-03-05T07:48:45.980Z,101665.19
2023-03-05T07:54:07.139Z,101666.47
2023-03-05T07:59:28.627Z,101671.03
2023-03-05T08:04:50.100Z,101656.22
2023-03-05T08:10:11.943Z,101651.75
2023-03-05T08:15:33.436Z,101649.44
2023-03-05T08:20:54.744Z,101646.31
2023-03-05T08:26:20.982Z,101636.03
2023-03-05T08:31:46.243Z,101642.63
2023-03-05T08:37:07.748Z,101631.31
2023-03-05T08:42:29.177Z,101635.06
2023-03-05T08:47:50.668Z,101635.66
2023-03-05T08:53:12.246Z,101624.16
2023-03-05T08:58:33.833Z,101620.28
2023-03-05T09:03:55.146Z,101609.38
2023-03-05T09:09:16.867Z,101609.50
2023-03-05T09:14:38.052Z,101612.41
2023-03-05T09:19:59.492Z,101603.47
2023-03-05T09:25:21.316Z,101610.84
2023-03-05T09:30:43.805Z,101602.91
2023-03-05T09:36:15.919Z,101590.28
2023-03-05T09:42:13.248Z,101581.72
2023-03-05T09:48:24.400Z,101571.25
2023-03-05T09:54:03.506Z,101569.63
2023-03-05T09:59:35.441Z,101573.94
2023-03-05T10:05:50.443Z,101571.06
2023-03-05T10:11:41.458Z,101562.75
2023-03-05T10:17:58.974Z,101562.69
2023-03-05T10:24:14.175Z,101543.28
2023-03-05T10:29:53.217Z,101544.41
2023-03-05T10:35:35.796Z,101540.03
2023-03-05T10:40:57.287Z,101538.69
2023-03-05T10:46:22.059Z,101537.72
2023-03-05T10:51:54.796Z,101535.69
2023-03-05T10:57:29.695Z,101514.59
2023-03-05T11:02:54.017Z,101502.13
2023-03-05T11:08:35.216Z,101494.53
2023-03-05T11:14:02.015Z,101515.66
2023-03-05T11:19:34.129Z,101518.28
2023-03-05T11:25:17.387Z,101501.38
2023-03-05T11:30:40.813Z,101490.84
2023-03-05T11:36:39.864Z,101471.41
2023-03-05T11:42:15.352Z,101445.88
2023-03-05T11:47:48.239Z,101434.00
2023-03-05T11:53:24.606Z,101424.16
2023-03-05T11:59:03.239Z,101410.53
2023-03-05T12:04:25.891Z,101401.16
2023-03-05T12:09:52.278Z,101392.00
2023-03-05T12:15:25.799Z,101380.19
2023-03-05T12:21:07.129Z,101378.91
2023-03-05T12:27:03.401Z,101380.63
2023-03-05T12:32:24.878Z,101376.66
2023-03-05T12:37:51.943Z,101362.66
2023-03-05T12:43:33.273Z,101349.66
2023-03-05T12:48:54.615Z,101337.19
2023-03-05T12:54:36.323Z,101342.03
2023-03-05T13:00:10.836Z,101341.78
2023-03-05T13:05:35.870Z,101336.06
2023-03-05T13:11:05.129Z,101323.00
2023-03-05T13:16:31.654Z,101303.69
2023-03-05T13:22:09.404Z,101318.00
2023-03-05T13:27:32.614Z,101302.13
2023-03-05T13:33:00.205Z,101299.31
2023-03-05T13:38:47.667Z,101290.16
2023-03-05T13:44:21.475Z,101287.03
2023-03-05T13:49:43.118Z,101280.47
2023-03-05T13:55:14.653Z,101282.25
2023-03-05T14:00:38.441Z,101277.16
2023-03-05T14:06:01.476Z,101269.56
2023-03-05T14:11:23.114Z,101261.38
2023-03-05T14:16:44.622Z,101246.09
2023-03-05T14:22:06.926Z,101250.09
2023-03-05T14:27:34.569Z,101235.38
2023-03-05T14:32:56.655Z,101229.09
2023-03-05T14:38:25.198Z,101221.34
2023-03-05T14:43:46.405Z,101205.19
2023-03-05T14:49:07.960Z,101201.31
2023-03-05T14:54:36.497Z,101203.19
2023-03-05T14:59:57.819Z,101191.03
2023-03-05T15:05:20.187Z,101194.88
2023-03-05T15:10:41.804Z,101192.50
2023-03-05T15:16:05.093Z,101185.53
2023-03-05T15:21:26.655Z,101174.78
2023-03-05T15:26:50.139Z,101166.44
2023-03-05T15:32:11.749Z,101160.09
2023-03-05T15:37:33.228Z,101164.03
2023-03-05T15:42:59.569Z,101152.38
2023-03-05T15:48:20.732Z,101150.59
2023-03-05T15:53:42.223Z,101145.88
2023-03-05T15:59:03.795Z,101141.28
2023-03-05T16:04:25.160Z,101135.13
2023-03-05T16:09:49.700Z,101130.91
2023-03-05T16:15:15.699Z,101130.44
2023-03-05T16:20:37.088Z,101124.78
2023-03-05T16:25:59.636Z,101115.28
2023-03-05T16:31:21.332Z,101107.63
2023-03-05T16:36:49.804Z,101114.06
2023-03-05T16:42:11.333Z,101105.25
2023-03-05T16:47:33.058Z,101101.81
2023-03-05T16:52:54.538Z,101107.34
2023-03-05T16:58:15.952Z,101097.56
2023-03-05T17:03:37.895Z,101091.91
2023-03-05T17:08:59.635Z,101092.44
2023-03-05T17:14:21.549Z,101088.97
2023-03-05T17:19:42.946Z,101091.13
2023-03-05T17:25:05.121Z,101092.78
2023-03-05T17:30:26.556Z,101088.72
2023-03-05T17:35:48.093Z,101084.94
2023-03-05T17:41:09.726Z,101088.94
2023-03-05T17:46:31.278Z,101069.34
2023-03-05T17:51:52.652Z,101083.09
2023-03-05T17:57:14.020Z,101077.16
2023-03-05T18:02:35.463Z,101069.31
2023-03-05T18:07:57.336Z,101069.91
2023-03-05T18:13:18.437Z,101058.34
2023-03-05T18:18:39.914Z,101061.69
2023-03-05T18:24:01.246Z,101047.59
2023-03-05T18:29:22.688Z,101059.06
2023-03-05T18:34:44.094Z,101046.13
2023-03-05T18:40:07.398Z,101040.78
2023-03-05T18:45:30.310Z,101040.53
2023-03-05T18:50:53.440Z,101028.59
2023-03-05T18:56:14.826Z,101028.06
2023-03-05T19:01:36.200Z,101019.53
2023-03-05T19:06:57.668Z,101012.69
2023-03-05T19:12:21.813Z,101011.06
2023-03-05T19:17:43.423Z,101010.72
2023-03-05T19:23:04.571Z,101002.09
2023-03-05T19:28:25.910Z,100995.78
2023-03-05T19:33:48.402Z,100990.28
2023-03-05T19:39:09.929Z,100984.53
2023-03-05T19:44:31.790Z,100973.28
2023-03-05T19:49:53.228Z,100971.03
2023-03-05T19:55:14.684Z,100955.41
2023-03-05T20:00:36.849Z,100948.72
2023-03-05T20:05:58.210Z,100947.91
2023-03-05T20:11:21.264Z,100947.03
2023-03-05T20:16:43.546Z,100918.47
2023-03-05T20:22:05.012Z,63551.88
2023-03-05T20:27:26.657Z,63551.88
2023-03-05T20:32:48.218Z,63551.88
2023-03-05T20:38:26.638Z,63551.88
2023-03-05T20:43:50.458Z,63551.88
2023-03-05T20:49:11.870Z,63551.88
2023-03-05T20:54:32.958Z,63551.88
2023-03-05T20:59:54.541Z,63551.88
2023-03-05T21:05:15.959Z,63551.88
2023-03-05T21:10:38.554Z,63551.88
2023-03-05T21:15:59.663Z,63551.88
2023-03-05T21:21:21.194Z,63551.88
2023-03-05T21:26:42.726Z,63551.88
2023-03-05T21:37:25.511Z,63551.88
2023-03-05T21:42:47.822Z,63551.88
2023-03-05T21:48:10.029Z,63551.88
2023-03-05T21:58:53.670Z,63551.88
2023-03-05T22:04:15.375Z,63551.88
2023-03-05T22:09:36.720Z,63551.88
2023-03-05T22:14:58.229Z,63551.88
2023-03-05T22:20:19.850Z,63551.88
2023-03-05T22:25:42.797Z,63551.88
2023-03-05T22:31:04.571Z,63551.88
2023-03-05T22:36:25.897Z,63551.88
2023-03-05T22:41:47.270Z,63551.88
2023-03-05T22:47:08.536Z,63551.88
2023-03-05T22:52:29.655Z,63551.88
2023-03-05T22:57:51.136Z,63551.88
2023-03-05T23:03:12.564Z,63551.88
2023-03-05T23:08:33.846Z,63551.88
2023-03-05T23:13:55.263Z,63551.88
2023-03-05T23:19:16.764Z,63551.88
2023-03-05T23:24:39.099Z,63551.88
2023-03-05T23:30:21.227Z,63551.88
2023-03-05T23:35:51.778Z,63551.88
2023-03-05T23:41:12.812Z,63551.88
2023-03-05T23:46:34.175Z,63551.88
2023-03-05T23:51:55.289Z,63551.88
2023-03-05T23:57:16.976Z,63551.88
